Time;durP1;ratioP1;P1;durP2;ratioP2;P2;SDS_P1;SDS_P2;PMS_P1;PMS_P2;Temp;Humidity;BMP_temperature;BMP_pressure;BME280_temperature;BME280_humidity;BME280_pressure;Samples;Min_cycle;Max_cycle;Signal;HPM_P1;HPM_P2
2024/01/15 00:00:53;;;;;;;40.33;17.60;;;;;;;-1.75;100.00;97451.22;4483907;31;20130;-74
2024/01/15 00:03:22;;;;;;;46.83;18.12;;;;;;;-1.74;100.00;97440.84;4483918;31;20154;-74
2024/01/15 00:05:49;;;;;;;43.35;18.30;;;;;;;-1.75;100.00;97435.81;4484122;31;20145;-74
2024/01/15 00:08:17;;;;;;;39.05;18.37;;;;;;;-1.78;100.00;97434.25;4483672;32;20084;-74
2024/01/15 00:10:45;;;;;;;43.67;18.65;;;;;;;-1.71;100.00;97426.97;4483910;31;20096;-74
2024/01/15 00:13:12;;;;;;;41.28;18.60;;;;;;;-1.63;100.00;97420.47;4484138;31;20109;-74
2024/01/15 00:15:40;;;;;;;41.50;17.12;;;;;;;-1.59;100.00;97420.28;4483591;32;20481;-74
2024/01/15 00:18:08;;;;;;;39.92;16.10;;;;;;;-1.77;100.00;97407.66;4487602;31;20091;-74
2024/01/15 00:20:36;;;;;;;34.30;15.57;;;;;;;-1.84;100.00;97401.25;4499213;31;20088;-74
2024/01/15 00:23:03;;;;;;;36.38;17.00;;;;;;;-1.77;100.00;97389.69;4499286;31;20108;-74
2024/01/15 00:25:31;;;;;;;35.50;16.48;;;;;;;-1.86;100.00;97385.09;4499276;31;20479;-74
2024/01/15 00:27:58;;;;;;;41.42;17.58;;;;;;;-1.96;100.00;97380.53;4499184;31;20135;-74
2024/01/15 00:30:26;;;;;;;40.72;16.67;;;;;;;-2.00;100.00;97381.66;4490650;31;20122;-74
2024/01/15 00:32:54;;;;;;;44.08;17.23;;;;;;;-1.96;100.00;97372.84;4483424;31;20097;-74
2024/01/15 00:35:22;;;;;;;39.85;16.15;;;;;;;-1.97;100.00;97370.38;4483365;31;20157;-74
2024/01/15 00:37:49;;;;;;;37.65;15.90;;;;;;;-2.00;100.00;97371.41;4484778;31;20121;-74
2024/01/15 00:40:18;;;;;;;41.22;16.35;;;;;;;-2.00;100.00;97363.69;4485734;31;20114;-74
2024/01/15 00:42:45;;;;;;;40.75;15.50;;;;;;;-2.02;100.00;97368.06;4485606;31;20477;-74
2024/01/15 00:45:13;;;;;;;37.45;16.00;;;;;;;-2.12;100.00;97371.28;4485687;31;20100;-74
2024/01/15 00:47:40;;;;;;;42.58;17.42;;;;;;;-2.39;100.00;97365.16;4485415;31;20088;-74
2024/01/15 00:50:08;;;;;;;47.97;17.92;;;;;;;-2.64;100.00;97362.41;4485595;32;20474;-74
2024/01/15 00:52:36;;;;;;;46.92;18.05;;;;;;;-2.46;100.00;97343.38;4485382;31;20123;-74
2024/01/15 00:55:05;;;;;;;47.35;17.92;;;;;;;-2.33;100.00;97351.97;4485589;31;20104;-74
2024/01/15 00:57:34;;;;;;;51.50;19.98;;;;;;;-2.39;100.00;97364.31;4485529;31;20809;-74
2024/01/15 01:00:02;;;;;;;54.88;21.58;;;;;;;-2.35;100.00;97350.41;4485560;31;20100;-74
2024/01/15 01:02:33;;;;;;;42.10;18.65;;;;;;;-2.24;100.00;97353.19;4485620;31;20092;-74
2024/01/15 01:05:00;;;;;;;52.17;20.05;;;;;;;-2.15;100.00;97347.50;4485350;31;20097;-74
2024/01/15 01:07:30;;;;;;;54.03;21.62;;;;;;;-2.11;100.00;97340.41;4483868;32;20087;-74
2024/01/15 01:09:58;;;;;;;52.13;21.00;;;;;;;-2.20;100.00;97353.81;4485304;31;20104;-74
2024/01/15 01:12:25;;;;;;;51.42;20.85;;;;;;;-2.29;100.00;97354.38;4485629;31;20167;-74
2024/01/15 01:14:52;;;;;;;49.67;19.95;;;;;;;-2.40;100.00;97349.88;4485145;31;20119;-74
2024/01/15 01:17:21;;;;;;;49.40;21.70;;;;;;;-2.50;100.00;97347.87;4485162;31;20084;-74
2024/01/15 01:19:49;;;;;;;52.55;20.37;;;;;;;-2.60;100.00;97344.19;4500475;31;20118;-74
2024/01/15 01:22:17;;;;;;;53.85;21.25;;;;;;;-2.56;100.00;97337.97;4500958;31;20572;-74
2024/01/15 01:24:45;;;;;;;54.83;20.23;;;;;;;-2.63;100.00;97343.56;4501073;31;20456;-74
2024/01/15 01:27:12;;;;;;;49.00;19.08;;;;;;;-2.74;100.00;97329.62;4501005;31;20487;-74
2024/01/15 01:29:40;;;;;;;52.80;19.23;;;;;;;-2.79;100.00;97331.59;4497224;31;20153;-74
2024/01/15 01:32:08;;;;;;;42.33;19.25;;;;;;;-2.81;100.00;97332.63;4485315;31;20541;-74
2024/01/15 01:34:41;;;;;;;51.50;19.60;;;;;;;-2.70;100.00;97331.06;4484998;31;20139;-74
2024/01/15 01:37:12;;;;;;;46.58;20.25;;;;;;;-2.72;100.00;97335.47;4485239;32;20639;-74
2024/01/15 01:39:40;;;;;;;44.42;18.12;;;;;;;-2.81;100.00;97322.38;4485615;31;20110;-74
2024/01/15 01:42:08;;;;;;;41.63;15.98;;;;;;;-2.82;100.00;97321.53;4485340;32;20162;-74
2024/01/15 01:44:36;;;;;;;47.45;18.80;;;;;;;-2.87;100.00;97300.50;4485273;32;20172;-73
2024/01/15 01:47:04;;;;;;;49.97;20.08;;;;;;;-2.78;100.00;97314.50;4485268;31;20080;-73
2024/01/15 01:49:32;;;;;;;50.20;19.55;;;;;;;-2.98;100.00;97295.16;4484053;31;20464;-74
2024/01/15 01:52:01;;;;;;;51.80;19.23;;;;;;;-3.04;100.00;97301.47;4485188;32;20093;-74
2024/01/15 01:54:30;;;;;;;48.47;20.00;;;;;;;-2.97;100.00;97284.81;4485027;31;20152;-73
2024/01/15 01:56:58;;;;;;;54.97;19.20;;;;;;;-2.92;100.00;97280.28;4483756;32;20100;-73
2024/01/15 01:59:27;;;;;;;50.17;20.62;;;;;;;-2.83;100.00;97278.91;4485030;31;20492;-73
2024/01/15 02:01:55;;;;;;;45.12;20.65;;;;;;;-3.10;100.00;97289.03;4484948;31;20561;-74
2024/01/15 02:04:24;;;;;;;46.58;19.67;;;;;;;-3.09;100.00;97271.00;4484931;31;20097;-74
2024/01/15 02:06:52;;;;;;;62.58;21.87;;;;;;;-3.08;100.00;97277.75;4485292;31;20080;-73
2024/01/15 02:09:20;;;;;;;50.95;19.20;;;;;;;-3.26;100.00;97266.03;4485199;31;20244;-73
2024/01/15 02:11:48;;;;;;;57.45;20.92;;;;;;;-3.16;100.00;97266.31;4485019;31;20100;-73
2024/01/15 02:14:15;;;;;;;53.15;21.30;;;;;;;-3.26;100.00;97281.41;4484934;32;20155;-73
2024/01/15 02:16:43;;;;;;;47.72;19.02;;;;;;;-3.34;100.00;97278.47;4485244;32;20125;-73
2024/01/15 02:19:17;;;;;;;54.13;21.48;;;;;;;-3.54;100.00;97274.44;4495700;31;20092;-73
2024/01/15 02:21:45;;;;;;;51.42;20.58;;;;;;;-3.62;100.00;97270.59;4500767;31;20160;-73
2024/01/15 02:24:13;;;;;;;50.55;20.08;;;;;;;-3.60;100.00;97262.84;4500454;31;20126;-73
2024/01/15 02:26:40;;;;;;;49.03;19.77;;;;;;;-3.61;100.00;97264.56;4500692;31;20163;-73
2024/01/15 02:29:08;;;;;;;51.65;21.12;;;;;;;-3.68;100.00;97254.75;4500637;31;20096;-73
2024/01/15 02:31:38;;;;;;;50.33;19.73;;;;;;;-3.75;100.00;97246.59;4485172;31;20602;-73
2024/01/15 02:34:09;;;;;;;48.60;20.48;;;;;;;-3.82;100.00;97248.66;4484801;31;20205;-73
2024/01/15 02:36:37;;;;;;;44.40;19.95;;;;;;;-3.90;100.00;97240.59;4484758;31;20155;-73
2024/01/15 02:39:05;;;;;;;51.80;20.65;;;;;;;-4.00;100.00;97242.81;4485048;31;20137;-73
2024/01/15 02:41:32;;;;;;;57.97;21.58;;;;;;;-4.01;100.00;97237.78;4484748;31;20171;-73
2024/01/15 02:44:00;;;;;;;71.68;21.27;;;;;;;-4.05;100.00;97223.56;4484846;31;20448;-73
2024/01/15 02:46:28;;;;;;;59.08;21.33;;;;;;;-4.13;100.00;97209.44;4484598;32;20104;-73
2024/01/15 02:48:55;;;;;;;53.00;21.08;;;;;;;-4.15;100.00;97221.50;4484619;32;20099;-73
2024/01/15 02:51:23;;;;;;;47.78;19.27;;;;;;;-4.12;100.00;97258.84;4484741;32;20504;-73
2024/01/15 02:53:50;;;;;;;52.55;20.48;;;;;;;-4.08;100.00;97262.09;4484914;32;20563;-73
2024/01/15 02:56:18;;;;;;;52.75;21.17;;;;;;;-4.23;100.00;97249.19;4484793;32;20111;-73
2024/01/15 02:58:46;;;;;;;50.78;20.37;;;;;;;-4.30;100.00;97242.75;4484623;32;20096;-73
2024/01/15 03:01:13;;;;;;;51.03;20.98;;;;;;;-4.33;100.00;97235.25;4484162;31;20163;-73
2024/01/15 03:03:41;;;;;;;50.58;19.73;;;;;;;-4.38;100.00;97220.16;4484510;32;20164;-73
2024/01/15 03:06:10;;;;;;;48.00;18.77;;;;;;;-4.40;100.00;97211.78;4484533;32;20119;-73
2024/01/15 03:08:37;;;;;;;47.45;19.75;;;;;;;-4.37;100.00;97205.69;4484330;31;20131;-73
2024/01/15 03:11:05;;;;;;;48.35;19.75;;;;;;;-4.46;100.00;97205.25;4484343;31;20159;-73
2024/01/15 03:13:35;;;;;;;49.50;19.90;;;;;;;-4.48;100.00;97201.97;4484376;32;20467;-73
2024/01/15 03:16:05;;;;;;;49.17;19.50;;;;;;;-4.45;100.00;97198.44;4484477;31;20077;-73
2024/01/15 03:18:32;;;;;;;49.92;19.98;;;;;;;-4.46;100.00;97192.47;4491145;31;20096;-73
2024/01/15 03:21:01;;;;;;;50.50;20.50;;;;;;;-4.52;100.00;97192.81;4500036;31;20140;-73
2024/01/15 03:23:28;;;;;;;48.40;19.58;;;;;;;-4.51;100.00;97184.25;4500428;31;20092;-73
2024/01/15 03:25:57;;;;;;;51.20;20.25;;;;;;;-4.55;100.00;97182.75;4499928;31;20096;-73
2024/01/15 03:28:25;;;;;;;51.28;19.70;;;;;;;-4.48;100.00;97176.41;4500008;31;20757;-73
2024/01/15 03:30:53;;;;;;;49.80;20.62;;;;;;;-4.33;100.00;97173.91;4488775;31;20167;-73
2024/01/15 03:33:21;;;;;;;50.15;20.15;;;;;;;-4.25;100.00;97183.72;4484064;31;20092;-73
2024/01/15 03:35:48;;;;;;;49.63;19.70;;;;;;;-4.15;100.00;97188.25;4483807;31;20118;-73
2024/01/15 03:38:16;;;;;;;48.55;20.08;;;;;;;-4.15;100.00;97197.66;4484053;31;20104;-73
2024/01/15 03:40:44;;;;;;;51.60;21.95;;;;;;;-4.16;100.00;97198.56;4483887;32;20115;-73
2024/01/15 03:43:11;;;;;;;50.67;20.77;;;;;;;-4.07;100.00;97182.72;4484134;31;20525;-73
2024/01/15 03:45:39;;;;;;;54.13;21.52;;;;;;;-4.12;100.00;97180.41;4482806;32;20108;-73
2024/01/15 03:48:06;;;;;;;43.35;20.75;;;;;;;-4.12;100.00;97197.47;4484098;31;20091;-73
2024/01/15 03:50:34;;;;;;;46.83;21.27;;;;;;;-4.09;100.00;97215.19;4484097;31;20435;-73
2024/01/15 03:53:02;;;;;;;56.50;21.20;;;;;;;-4.13;100.00;97222.22;4482826;32;20120;-73
2024/01/15 03:55:29;;;;;;;49.92;19.73;;;;;;;-4.18;100.00;97198.66;4483920;31;20568;-73
2024/01/15 03:57:57;;;;;;;45.67;21.25;;;;;;;-4.30;100.00;97229.97;4483709;31;20084;-73
2024/01/15 04:00:25;;;;;;;49.13;21.00;;;;;;;-4.28;100.00;97210.28;4483994;31;20109;-73
2024/01/15 04:02:53;;;;;;;51.03;19.48;;;;;;;-4.29;100.00;97218.84;4483774;31;20123;-73
2024/01/15 04:05:21;;;;;;;55.03;22.33;;;;;;;-4.24;100.00;97208.38;4483560;31;20160;-73
2024/01/15 04:07:48;;;;;;;49.00;21.17;;;;;;;-4.35;100.00;97203.84;4483538;31;20108;-73
2024/01/15 04:10:16;;;;;;;56.83;21.35;;;;;;;-4.36;100.00;97197.09;4483506;31;20158;-73
2024/01/15 04:12:46;;;;;;;56.50;22.45;;;;;;;-4.44;100.00;97178.78;4483129;32;20166;-73
2024/01/15 04:15:13;;;;;;;54.40;22.58;;;;;;;-4.54;100.00;97179.28;4486045;32;20115;-73
2024/01/15 04:17:41;;;;;;;44.67;19.12;;;;;;;-4.64;100.00;97178.94;4486687;31;20123;-73
2024/01/15 04:20:10;;;;;;;48.33;21.77;;;;;;;-4.69;100.00;97173.28;4501629;31;20158;-73
2024/01/15 04:22:38;;;;;;;47.55;20.08;;;;;;;-4.69;100.00;97175.00;4501372;31;20122;-73
2024/01/15 04:25:06;;;;;;;51.33;21.73;;;;;;;-4.77;100.00;97174.59;4501535;31;20088;-72
2024/01/15 04:27:41;;;;;;;45.25;20.77;;;;;;;-4.79;100.00;97176.41;4501567;31;20133;-73
2024/01/15 04:30:10;;;;;;;56.60;22.50;;;;;;;-4.81;100.00;97184.16;4494516;31;20533;-73
2024/01/15 04:32:37;;;;;;;50.40;22.08;;;;;;;-4.81;100.00;97182.41;4485848;31;20554;-73
2024/01/15 04:35:05;;;;;;;57.35;22.77;;;;;;;-4.72;100.00;97170.06;4485254;32;20557;-73
2024/01/15 04:37:33;;;;;;;54.72;23.92;;;;;;;-4.68;100.00;97164.72;4485524;32;20122;-72
2024/01/15 04:40:00;;;;;;;59.95;24.17;;;;;;;-4.74;100.00;97166.75;4485774;32;20156;-72
2024/01/15 04:42:30;;;;;;;56.42;22.95;;;;;;;-4.73;100.00;97150.53;4485522;32;20100;-72
2024/01/15 04:44:58;;;;;;;62.70;24.10;;;;;;;-4.76;100.00;97153.25;4485498;31;20092;-72
2024/01/15 04:47:25;;;;;;;61.05;24.05;;;;;;;-4.75;100.00;97153.16;4485365;32;20138;-72
2024/01/15 04:49:53;;;;;;;60.88;22.83;;;;;;;-4.65;100.00;97150.94;4485314;31;20479;-72
2024/01/15 04:52:21;;;;;;;54.50;22.48;;;;;;;-4.62;100.00;97160.97;4485508;32;20097;-73
2024/01/15 04:54:48;;;;;;;57.45;23.33;;;;;;;-4.57;100.00;97169.25;4485253;32;20577;-72
2024/01/15 04:57:16;;;;;;;56.25;22.73;;;;;;;-4.44;100.00;97160.91;4485656;31;20092;-72
2024/01/15 04:59:43;;;;;;;44.35;20.27;;;;;;;-4.44;100.00;97168.56;4485446;31;20089;-72
2024/01/15 05:02:11;;;;;;;52.35;21.37;;;;;;;-4.37;100.00;97165.59;4493831;31;20167;-72
2024/01/15 05:04:39;;;;;;;61.63;22.45;;;;;;;-4.39;100.00;97179.34;4489736;31;20112;-73
2024/01/15 05:07:08;;;;;;;54.30;20.20;;;;;;;-4.42;100.00;97182.94;4487342;31;20433;-72
2024/01/15 05:09:35;;;;;;;54.75;21.42;;;;;;;-4.34;100.00;97178.22;4490500;31;20408;-73
2024/01/15 05:12:03;;;;;;;50.78;21.27;;;;;;;-4.39;100.00;97176.81;4499290;31;20103;-73
2024/01/15 05:14:31;;;;;;;44.35;20.15;;;;;;;-4.39;100.00;97175.09;4485397;31;20442;-73
2024/01/15 05:16:59;;;;;;;54.15;20.20;;;;;;;-4.41;100.00;97178.63;4490560;31;20092;-73
2024/01/15 05:19:26;;;;;;;55.47;20.05;;;;;;;-4.47;100.00;97169.56;4488891;31;20490;-72
2024/01/15 05:21:55;;;;;;;46.20;19.65;;;;;;;-4.42;100.00;97175.25;4491830;31;20096;-72
2024/01/15 05:24:22;;;;;;;55.20;19.23;;;;;;;-4.48;100.00;97170.44;4486359;31;20171;-72
2024/01/15 05:26:50;;;;;;;49.30;19.52;;;;;;;-4.37;100.00;97169.91;4493273;31;20118;-72
2024/01/15 05:29:18;;;;;;;48.87;20.10;;;;;;;-4.32;100.00;97173.81;4492748;31;20220;-73
2024/01/15 05:31:45;;;;;;;39.53;17.08;;;;;;;-4.28;100.00;97179.59;4485947;31;20563;-72
2024/01/15 05:34:13;;;;;;;43.97;18.77;;;;;;;-4.13;100.00;97178.75;4490164;31;20115;-72
2024/01/15 05:36:41;;;;;;;47.30;18.58;;;;;;;-4.04;100.00;97176.59;4500755;31;20105;-72
2024/01/15 05:39:09;;;;;;;39.83;17.87;;;;;;;-4.00;100.00;97178.06;4494280;31;20544;-73
2024/01/15 05:41:36;;;;;;;36.65;16.52;;;;;;;-3.97;100.00;97168.47;4494031;31;20092;-73
2024/01/15 05:44:04;;;;;;;43.70;16.83;;;;;;;-3.97;100.00;97175.34;4485851;31;20408;-72
2024/01/15 05:46:31;;;;;;;35.92;16.15;;;;;;;-3.89;100.00;97182.56;4494784;31;20148;-72
2024/01/15 05:49:00;;;;;;;46.70;16.17;;;;;;;-3.86;100.00;97178.12;4486871;31;20116;-73
2024/01/15 05:51:29;;;;;;;31.80;14.98;;;;;;;-3.79;100.00;97181.16;4485529;31;20170;-72
2024/01/15 05:53:56;;;;;;;36.92;15.13;;;;;;;-3.66;100.00;97181.28;4498355;31;20123;-72
2024/01/15 05:56:25;;;;;;;42.95;15.43;;;;;;;-3.64;100.00;97179.47;4500873;31;20091;-73
2024/01/15 05:58:52;;;;;;;46.95;16.83;;;;;;;-3.61;100.00;97176.72;4498007;31;20097;-72
2024/01/15 06:01:20;;;;;;;41.08;16.90;;;;;;;-3.54;100.00;97170.34;4493289;31;20107;-73
2024/01/15 06:03:47;;;;;;;38.63;15.45;;;;;;;-3.50;100.00;97176.09;4488524;31;20469;-73
2024/01/15 06:06:14;;;;;;;40.72;16.12;;;;;;;-3.46;100.00;97167.34;4497658;31;20096;-73
2024/01/15 06:08:41;;;;;;;45.92;15.68;;;;;;;-3.44;100.00;97163.75;4499182;31;20153;-73
2024/01/15 06:11:09;;;;;;;45.60;17.45;;;;;;;-3.43;100.00;97167.16;4499685;31;20165;-73
2024/01/15 06:13:36;;;;;;;49.03;17.85;;;;;;;-3.47;100.00;97171.63;4497022;31;20164;-73
2024/01/15 06:16:13;;;;;;;44.72;20.00;;;;;;;-3.37;100.00;97177.03;4488730;31;20156;-73
2024/01/15 06:18:41;;;;;;;48.65;19.20;;;;;;;-3.35;100.00;97182.06;4498123;31;20108;-73
2024/01/15 06:21:10;;;;;;;42.50;17.23;;;;;;;-3.41;100.00;97184.09;4492580;31;20088;-73
2024/01/15 06:23:38;;;;;;;48.33;18.10;;;;;;;-3.49;100.00;97186.25;4499445;31;20602;-73
2024/01/15 06:26:05;;;;;;;42.78;17.45;;;;;;;-3.45;100.00;97177.47;4494369;31;20122;-73
2024/01/15 06:28:34;;;;;;;41.05;16.65;;;;;;;-3.46;100.00;97183.50;4499125;31;20134;-73
2024/01/15 06:31:02;;;;;;;45.25;18.08;;;;;;;-3.47;100.00;97194.66;4495995;31;20431;-73
2024/01/15 06:33:29;;;;;;;47.67;19.25;;;;;;;-3.42;100.00;97202.09;4487756;31;20109;-73
2024/01/15 06:35:57;;;;;;;48.65;18.73;;;;;;;-3.37;100.00;97181.34;4481971;31;20509;-73
2024/01/15 06:38:25;;;;;;;52.13;17.95;;;;;;;-3.36;100.00;97183.81;4495432;31;20532;-73
2024/01/15 06:40:52;;;;;;;38.03;17.25;;;;;;;-3.37;100.00;97189.03;4498643;31;20097;-73
2024/01/15 06:43:20;;;;;;;57.72;20.35;;;;;;;-3.31;100.00;97192.03;4498895;31;20096;-73
2024/01/15 06:45:48;;;;;;;43.78;18.40;;;;;;;-3.39;100.00;97192.50;4488253;31;20175;-73
2024/01/15 06:48:16;;;;;;;52.72;20.60;;;;;;;-3.29;100.00;97194.50;4485176;31;20153;-73
2024/01/15 06:50:44;;;;;;;49.17;18.12;;;;;;;-3.31;100.00;97196.34;4486125;31;20092;-73
2024/01/15 06:53:11;;;;;;;53.95;20.27;;;;;;;-3.23;100.00;97204.37;4498693;31;20429;-73
2024/01/15 06:55:39;;;;;;;45.65;18.42;;;;;;;-3.29;100.00;97199.62;4492418;31;20095;-73
2024/01/15 06:58:08;;;;;;;44.03;18.33;;;;;;;-3.23;100.00;97199.25;4488864;31;20096;-73
2024/01/15 07:00:37;;;;;;;47.62;16.50;;;;;;;-3.25;100.00;97199.34;4491263;31;20096;-73
2024/01/15 07:03:05;;;;;;;43.30;17.55;;;;;;;-3.17;100.00;97198.09;4487198;31;20096;-73
2024/01/15 07:05:32;;;;;;;45.50;18.85;;;;;;;-3.22;100.00;97209.41;4492803;31;20376;-73
2024/01/15 07:08:00;;;;;;;46.53;17.20;;;;;;;-3.24;100.00;97201.00;4486543;31;20122;-73
2024/01/15 07:10:27;;;;;;;47.10;18.30;;;;;;;-3.23;100.00;97209.50;4484842;31;20134;-73
2024/01/15 07:12:54;;;;;;;41.22;18.95;;;;;;;-3.16;100.00;97209.97;4496018;31;20092;-73
2024/01/15 07:15:22;;;;;;;44.35;18.52;;;;;;;-2.98;100.00;97210.63;4490650;31;20103;-73
2024/01/15 07:17:49;;;;;;;43.63;18.42;;;;;;;-3.01;100.00;97221.88;4493951;31;20116;-73
2024/01/15 07:20:19;;;;;;;43.03;19.02;;;;;;;-2.98;100.00;97223.41;4493665;31;20475;-73
2024/01/15 07:22:46;;;;;;;44.72;17.87;;;;;;;-2.96;100.00;97216.50;4486607;31;20123;-74
2024/01/15 07:25:15;;;;;;;41.60;17.02;;;;;;;-2.87;100.00;97223.62;4487202;31;20100;-73
2024/01/15 07:27:44;;;;;;;40.60;17.58;;;;;;;-2.82;100.00;97223.34;4491685;31;20119;-74
2024/01/15 07:30:12;;;;;;;42.45;14.73;;;;;;;-2.84;100.00;97228.56;4493107;31;20182;-74
2024/01/15 07:32:47;;;;;;;37.83;15.95;;;;;;;-2.75;100.00;97230.56;4486189;31;20457;-74
2024/01/15 07:35:18;;;;;;;38.60;15.40;;;;;;;-2.67;100.00;97225.78;4490732;31;20122;-74
2024/01/15 07:37:47;;;;;;;37.22;14.60;;;;;;;-2.65;100.00;97227.44;4491345;31;20164;-74
2024/01/15 07:40:16;;;;;;;33.85;14.90;;;;;;;-2.65;100.00;97227.44;4490400;31;20104;-73
2024/01/15 07:42:43;;;;;;;36.67;13.60;;;;;;;-2.64;100.00;97231.66;4489437;31;20104;-73
2024/01/15 07:45:12;;;;;;;23.80;11.40;;;;;;;-2.63;100.00;97239.25;4494924;31;20092;-73
2024/01/15 07:47:41;;;;;;;31.55;12.98;;;;;;;-2.57;100.00;97226.06;4495266;31;20129;-72
2024/01/15 07:50:09;;;;;;;34.20;13.20;;;;;;;-2.46;100.00;97227.97;4489207;31;20535;-73
2024/01/15 07:52:44;;;;;;;30.90;12.18;;;;;;;-2.33;100.00;97226.31;4497933;31;20509;-73
2024/01/15 07:55:11;;;;;;;32.95;13.15;;;;;;;-2.30;100.00;97227.03;4495229;31;20091;-72
2024/01/15 07:57:38;;;;;;;28.70;12.18;;;;;;;-2.28;100.00;97235.47;4497263;31;20104;-72
2024/01/15 08:00:06;;;;;;;26.20;11.63;;;;;;;-2.29;100.00;97239.75;4501605;31;20127;-72
2024/01/15 08:02:34;;;;;;;28.45;11.90;;;;;;;-2.28;100.00;97243.97;4493722;31;20167;-71
2024/01/15 08:05:05;;;;;;;28.20;11.73;;;;;;;-2.11;100.00;97237.78;4487417;31;20119;-72
2024/01/15 08:07:33;;;;;;;26.20;11.85;;;;;;;-1.95;100.00;97245.38;4492231;31;20149;-72
2024/01/15 08:10:02;;;;;;;28.50;12.68;;;;;;;-1.79;100.00;97234.94;4498224;31;20768;-72
2024/01/15 08:12:29;;;;;;;31.70;11.57;;;;;;;-1.61;100.00;97249.16;4487058;31;20092;-72
2024/01/15 08:14:58;;;;;;;29.70;12.40;;;;;;;-1.50;100.00;97257.91;4487787;31;20142;-72
2024/01/15 08:17:28;;;;;;;35.15;14.15;;;;;;;-1.42;100.00;97268.53;4486788;31;20097;-72
2024/01/15 08:19:56;;;;;;;31.83;13.20;;;;;;;-1.35;100.00;97259.47;4494725;31;20084;-71
2024/01/15 08:22:23;;;;;;;36.05;13.68;;;;;;;-1.26;100.00;97260.62;4498529;31;20088;-72
2024/01/15 08:24:57;;;;;;;30.80;13.33;;;;;;;-1.21;100.00;97252.62;4492259;31;20692;-71
2024/01/15 08:27:24;;;;;;;31.90;12.70;;;;;;;-1.16;100.00;97253.16;4497704;31;20638;-72
2024/01/15 08:29:53;;;;;;;32.75;13.43;;;;;;;-1.14;100.00;97261.56;4493903;31;20103;-72
2024/01/15 08:32:20;;;;;;;32.60;14.65;;;;;;;-1.15;100.00;97250.47;4492643;31;20088;-72
2024/01/15 08:34:48;;;;;;;34.33;14.73;;;;;;;-1.01;100.00;97272.69;4482440;31;20555;-71
2024/01/15 08:37:16;;;;;;;38.70;15.63;;;;;;;-1.03;100.00;97266.84;4494469;31;20112;-73
2024/01/15 08:39:44;;;;;;;33.80;14.82;;;;;;;-0.97;100.00;97257.87;4490311;31;20160;-72
2024/01/15 08:42:12;;;;;;;30.75;12.75;;;;;;;-0.90;100.00;97254.78;4494059;31;20108;-72
2024/01/15 08:44:41;;;;;;;33.00;14.10;;;;;;;-0.77;100.00;97259.94;4491734;31;20100;-72
2024/01/15 08:47:11;;;;;;;30.92;13.13;;;;;;;-0.63;100.00;97266.72;4491233;31;20104;-73
2024/01/15 08:49:40;;;;;;;31.67;13.23;;;;;;;-0.63;100.00;97251.28;4485262;31;20079;-73
2024/01/15 08:52:09;;;;;;;32.33;14.40;;;;;;;-0.58;100.00;97256.94;4490111;31;20183;-73
2024/01/15 08:54:37;;;;;;;36.28;14.18;;;;;;;-0.44;100.00;97250.88;4494209;31;20112;-75
2024/01/15 08:57:04;;;;;;;29.23;12.25;;;;;;;-0.44;100.00;97261.16;4493859;31;20123;-75
2024/01/15 08:59:32;;;;;;;28.50;12.20;;;;;;;-0.33;100.00;97262.13;4492497;31;20193;-74
2024/01/15 09:02:00;;;;;;;35.38;14.10;;;;;;;-0.22;100.00;97263.03;4488003;31;20097;-75
2024/01/15 09:04:27;;;;;;;34.90;13.05;;;;;;;-0.20;100.00;97263.78;4489163;31;20545;-74
2024/01/15 09:06:57;;;;;;;27.10;12.05;;;;;;;-0.08;100.00;97267.22;4487849;31;20100;-76
2024/01/15 09:09:27;;;;;;;29.63;13.00;;;;;;;-0.02;100.00;97277.09;4495773;31;20574;-74
2024/01/15 09:11:54;;;;;;;31.67;12.13;;;;;;;0.08;100.00;97268.75;4490737;31;20462;-75
2024/01/15 09:14:26;;;;;;;25.15;11.85;;;;;;;0.13;100.00;97270.03;4489931;31;20104;-73
2024/01/15 09:17:06;;;;;;;24.33;11.85;;;;;;;0.23;100.00;97270.22;4488693;31;20476;-75
2024/01/15 09:19:34;;;;;;;25.37;11.93;;;;;;;0.39;100.00;97256.22;4490591;31;20095;-75
2024/01/15 09:22:03;;;;;;;25.85;10.95;;;;;;;0.34;100.00;97264.28;4485374;31;20140;-73
2024/01/15 09:24:31;;;;;;;26.45;11.90;;;;;;;0.35;100.00;97259.03;4490881;31;20471;-77
2024/01/15 09:26:58;;;;;;;27.85;11.75;;;;;;;0.39;100.00;97264.78;4495714;31;20108;-75
2024/01/15 09:29:26;;;;;;;20.12;9.90;;;;;;;0.44;100.00;97254.12;4486848;31;20524;-75
2024/01/15 09:31:54;;;;;;;24.98;9.82;;;;;;;0.46;100.00;97253.09;4488106;31;20129;-75
2024/01/15 09:34:24;;;;;;;22.42;11.02;;;;;;;0.53;100.00;97254.31;4495291;31;20510;-75
2024/01/15 09:36:51;;;;;;;21.73;9.98;;;;;;;0.67;100.00;97250.72;4497347;31;20487;-75
2024/01/15 09:39:21;;;;;;;23.00;10.55;;;;;;;0.71;100.00;97253.88;4498126;31;20391;-75
2024/01/15 09:41:49;;;;;;;20.67;9.27;;;;;;;0.74;100.00;97248.50;4499403;31;20084;-75
2024/01/15 09:44:17;;;;;;;22.70;9.95;;;;;;;0.81;100.00;97249.69;4480304;31;20438;-73
2024/01/15 09:46:46;;;;;;;25.73;9.52;;;;;;;0.81;100.00;97234.22;4498043;31;20126;-74
2024/01/15 09:49:14;;;;;;;23.95;9.55;;;;;;;0.83;100.00;97242.69;4499323;31;20107;-75
2024/01/15 09:51:41;;;;;;;19.60;8.57;;;;;;;0.95;100.00;97225.44;4499036;31;20138;-75
2024/01/15 09:54:10;;;;;;;14.23;6.57;;;;;;;1.08;100.00;97215.06;4498300;31;20443;-74
2024/01/15 09:56:39;;;;;;;14.63;6.12;;;;;;;1.19;100.00;97212.47;4497340;31;20757;-76
2024/01/15 09:59:11;;;;;;;13.52;5.97;;;;;;;1.29;100.00;97225.50;4498334;31;20087;-78
2024/01/15 10:01:40;;;;;;;12.40;5.75;;;;;;;1.33;100.00;97218.34;4483326;31;20100;-77
2024/01/15 10:04:13;;;;;;;15.75;6.60;;;;;;;1.40;100.00;97202.25;4481723;31;20092;-75
2024/01/15 10:06:48;;;;;;;14.57;7.03;;;;;;;1.37;100.00;97207.66;4498793;31;20112;-76
2024/01/15 10:09:15;;;;;;;15.57;6.50;;;;;;;1.41;100.00;97206.50;4498678;31;20164;-76
2024/01/15 10:11:43;;;;;;;12.10;4.82;;;;;;;1.65;100.00;97202.97;4479119;31;20084;-77
2024/01/15 10:14:14;;;;;;;11.00;4.43;;;;;;;1.75;99.47;97210.78;4492286;31;20093;-77
2024/01/15 10:16:43;;;;;;;11.60;5.37;;;;;;;1.86;97.37;97195.28;4495821;31;20114;-76
2024/01/15 10:19:11;;;;;;;14.25;5.53;;;;;;;1.93;95.54;97187.87;4496278;31;20561;-77
2024/01/15 10:21:39;;;;;;;14.23;5.05;;;;;;;2.11;93.01;97188.97;4497060;31;20128;-76
2024/01/15 10:24:07;;;;;;;11.88;5.03;;;;;;;2.19;91.22;97180.59;4493033;31;20088;-75
2024/01/15 10:26:34;;;;;;;21.37;6.05;;;;;;;2.23;92.17;97194.09;4497056;31;20175;-75
2024/01/15 10:29:01;;;;;;;10.82;4.78;;;;;;;2.39;89.31;97194.50;4497716;31;20107;-74
2024/01/15 10:31:30;;;;;;;10.77;5.07;;;;;;;2.27;88.73;97193.75;4494598;31;20100;-73
2024/01/15 10:34:11;;;;;;;11.32;4.12;;;;;;;2.35;89.93;97190.53;4492674;31;20117;-74
2024/01/15 10:36:41;;;;;;;14.15;5.87;;;;;;;2.49;88.33;97186.81;4478181;32;20155;-74
2024/01/15 10:39:09;;;;;;;15.05;6.03;;;;;;;2.54;85.19;97191.59;4459267;32;20109;-74
2024/01/15 10:41:36;;;;;;;9.23;4.10;;;;;;;2.54;87.40;97194.19;4474710;32;20101;-75
2024/01/15 10:44:04;;;;;;;8.15;4.10;;;;;;;2.56;84.81;97193.12;4470048;32;20161;-74
2024/01/15 10:46:32;;;;;;;8.63;3.83;;;;;;;2.60;84.28;97193.69;4477234;32;20538;-74
2024/01/15 10:49:02;;;;;;;11.90;4.03;;;;;;;2.73;82.28;97185.75;4473440;32;20527;-75
2024/01/15 10:51:30;;;;;;;10.60;4.20;;;;;;;2.81;80.24;97180.75;4477024;32;20135;-74
2024/01/15 10:53:59;;;;;;;8.57;3.87;;;;;;;2.77;80.88;97180.19;4458775;32;20112;-74
2024/01/15 10:56:28;;;;;;;8.90;3.33;;;;;;;2.90;80.47;97174.81;4470859;32;20161;-73
2024/01/15 10:58:56;;;;;;;8.95;4.20;;;;;;;3.10;78.82;97170.53;4458092;32;20108;-75
2024/01/15 11:01:28;;;;;;;11.38;3.78;;;;;;;2.81;78.21;97180.75;4474765;32;20092;-75
2024/01/15 11:03:58;;;;;;;11.00;4.37;;;;;;;2.84;79.94;97177.91;4461992;32;20103;-75
2024/01/15 11:06:28;;;;;;;14.15;4.03;;;;;;;2.92;78.85;97177.25;4474264;32;20096;-74
2024/01/15 11:08:57;;;;;;;8.55;3.65;;;;;;;2.79;78.23;97167.94;4473469;32;21462;-75
2024/01/15 11:11:25;;;;;;;10.57;4.87;;;;;;;2.86;79.39;97177.78;4478021;32;20170;-74
2024/01/15 11:13:53;;;;;;;15.93;5.80;;;;;;;2.94;79.59;97176.19;4474208;32;20130;-75
2024/01/15 11:16:20;;;;;;;11.00;5.10;;;;;;;2.94;80.10;97170.22;4471369;32;20124;-74